This is the latest recevied weather packets stored in our database for station/object N7FEQ. If no packets are shown the sender has not sent any weather packets the latest 10 day(s).
| Time | Temp. | Humidity | Pressure | Rain* | Wind** | Luminosity | Snow |
|---|---|---|---|---|---|---|---|
| 1777185522 | 6.67° C | 58% | 1006.3 hPa | 0 mm | - | - | - |
| 1777183661 | 7.22° C | 58% | 1006.2 hPa | 0 mm | - | - | - |
| 1777183041 | 7.22° C | 57% | 1006.3 hPa | 0 mm | - | - | - |
| 1777176840 | 8.33° C | 56% | 1006.4 hPa | 0 mm | - | - | - |
| 1777170131 | 10.56° C | 44% | 1005.3 hPa | 0 mm | - | - | - |
| 1777167068 | 11.67° C | 43% | 1005.5 hPa | 0 mm | - | - | - |
| 1777165226 | 12.78° C | 41% | 1005.3 hPa | 0 mm | - | - | - |
| 1777157178 | 16.11° C | 28% | 1006.3 hPa | 0 mm | - | - | - |
| 1777156559 | 16.11° C | 29% | 1006.5 hPa | 0 mm | - | - | - |
| 1777155321 | 16.67° C | 29% | 1006.7 hPa | 0 mm | - | - | - |
| 1777151078 | 16.67° C | 25% | 1007.6 hPa | 0 mm | - | - | - |
| 1777147991 | 15.56° C | 23% | 1008.1 hPa | 0 mm | - | - | - |
| 1777146163 | 15.56° C | 23% | 1008.4 hPa | 0 mm | - | - | - |
| 1777145556 | 15° C | 25% | 1008.6 hPa | 0 mm | - | - | - |
| 1777143149 | 13.89° C | 25% | 1009.2 hPa | 0 mm | - | - | - |
| 1777131425 | 8.89° C | 57% | 1010.3 hPa | 0 mm | - | - | - |
| 1777127088 | 6.11° C | 66% | 1010.3 hPa | 0 mm | - | - | - |
| 1777125228 | 6.11° C | 64% | 1010.3 hPa | 0 mm | - | - | - |
| 1777115989 | 8.33° C | 54% | 1010.4 hPa | 0 mm | - | - | - |
| 1777115373 | 8.33° C | 54% | 1010.4 hPa | 0 mm | - | - | - |
| 1777107965 | 8.89° C | 57% | 1011 hPa | 0 mm | - | - | - |
| 1777106727 | 8.89° C | 58% | 1011.1 hPa | 0 mm | - | - | - |
| 1777105484 | 8.89° C | 58% | 1011.2 hPa | 0 mm | - | - | - |
| 1777085688 | 11.11° C | 53% | 1010.7 hPa | 0 mm | - | - | - |
| 1777083829 | 12.22° C | 51% | 1010.5 hPa | 0 mm | - | - | - |
* Rain latest hour (hover to see other rain measurements)
** Current wind speed in m/s (hover to see current wind gust speed)